| time (UTC) | temp F | wind direction | speed MPH | gust MPH | rain 1hr in | rain 24hr in | rain mn in | humidity % | barometer mb |
| 20260901063704 | 80 | 161 | 1.0 | 2.0 | 0.00 | 0.00 | 0.00 | 56 | 1017.3 |
| 20260901060703 | 81 | 161 | 1.0 | 2.0 | 0.00 | 0.00 | 0.00 | 54 | 1017.4 |
| 20260901060203 | 81 | 161 | 1.0 | 2.0 | 0.00 | 0.00 | 0.00 | 54 | 1017.4 |
| 20260901053703 | 80 | 161 | 1.0 | 1.0 | 0.00 | 0.00 | 0.00 | 56 | 1017.3 |
| 20260901053203 | 80 | 161 | 0.0 | 1.0 | 0.00 | 0.00 | 0.00 | 56 | 1017.2 |
| 20260901050704 | 82 | 161 | 0.0 | 0.0 | 0.00 | 0.00 | 0.00 | 54 | 1017.2 |
| 20260901050204 | 82 | 161 | 0.0 | 1.0 | 0.00 | 0.00 | 0.00 | 54 | 1017.1 |
| 20260901043703 | 84 | 161 | 0.0 | 2.0 | 0.00 | 0.00 | 0.00 | 50 | 1017.1 |
| 20260901043203 | 85 | 161 | 1.0 | 5.0 | 0.00 | 0.00 | 0.00 | 50 | 1017.1 |
| 20260901040703 | 85 | 146 | 2.0 | 5.0 | 0.00 | 0.00 | 0.00 | 49 | 1017.0 |
| 20260901040203 | 85 | 150 | 2.0 | 5.0 | 0.00 | 0.00 | 0.00 | 49 | 1017.1 |
| 20260901033703 | 86 | 148 | 2.0 | 5.0 | 0.00 | 0.00 | 0.00 | 48 | 1016.9 |
| 20260901033203 | 86 | 144 | 2.0 | 3.0 | 0.00 | 0.00 | 0.00 | 48 | 1016.8 |
| 20260901030704 | 87 | 134 | 2.0 | 3.0 | 0.00 | 0.00 | 0.00 | 47 | 1016.6 |
| 20260901030203 | 87 | 134 | 2.0 | 7.0 | 0.00 | 0.00 | 0.00 | 46 | 1016.5 |
| 20260901023703 | 88 | 160 | 3.0 | 7.0 | 0.00 | 0.00 | 0.00 | 45 | 1016.2 |
| 20260901020703 | 89 | 136 | 3.0 | 7.0 | 0.00 | 0.00 | 0.00 | 44 | 1015.8 |
| 20260901020203 | 89 | 161 | 3.0 | 6.0 | 0.00 | 0.00 | 0.00 | 44 | 1015.8 |
| 20260901013204 | 91 | 155 | 3.0 | 8.0 | 0.00 | 0.00 | 0.00 | 41 | 1015.4 |
| 20260901010703 | 93 | 126 | 3.0 | 5.0 | 0.00 | 0.00 | 0.00 | 40 | 1015.2 |
| 20260901010203 | 93 | 161 | 2.0 | 7.0 | 0.00 | 0.00 | 0.00 | 39 | 1015.2 |
| 20260901003704 | 95 | 153 | 4.0 | 6.0 | 0.00 | 0.00 | 0.00 | 38 | 1015.1 |
| 20260901000703 | 96 | 158 | 3.0 | 10.0 | 0.00 | 0.00 | 0.00 | 37 | 1015.1 |
| 20260901000204 | 96 | 144 | 6.0 | 10.0 | 0.00 | 0.00 | 0.00 | 37 | 1015.0 |
| 20260831233703 | 98 | 162 | 6.0 | 8.0 | 0.00 | 0.00 | 0.00 | 37 | 1015.0 |
| 20260831233203 | 98 | 158 | 3.0 | 12.0 | 0.00 | 0.00 | 0.00 | 37 | 1015.0 |
| 20260831230703 | 99 | 159 | 4.0 | 8.0 | 0.00 | 0.00 | 0.00 | 37 | 1015.0 |
| 20260831223703 | 99 | 148 | 6.0 | 12.0 | 0.00 | 0.00 | 0.00 | 36 | 1015.1 |
| 20260831223203 | 99 | 151 | 5.0 | 13.0 | 0.00 | 0.00 | 0.00 | 36 | 1015.0 |
| 20260831220703 | 99 | 150 | 5.0 | 9.0 | 0.00 | 0.00 | 0.00 | 36 | 1015.1 |
| 20260831220203 | 99 | 191 | 5.0 | 14.0 | 0.00 | 0.00 | 0.00 | 37 | 1015.0 |
| 20260831213704 | 99 | 169 | 5.0 | 12.0 | 0.00 | 0.00 | 0.00 | 36 | 1015.2 |
| 20260831213203 | 100 | 157 | 3.0 | 15.0 | 0.00 | 0.00 | 0.00 | 37 | 1015.2 |
| 20260831210704 | 99 | 136 | 7.0 | 15.0 | 0.00 | 0.00 | 0.00 | 36 | 1015.4 |
| 20260831210204 | 99 | 173 | 6.0 | 15.0 | 0.00 | 0.00 | 0.00 | 36 | 1015.5 |
| 20260831203204 | 98 | 141 | 7.0 | 12.0 | 0.00 | 0.00 | 0.00 | 37 | 1015.8 |
| 20260831200703 | 100 | 191 | 6.0 | 12.0 | 0.00 | 0.00 | 0.00 | 37 | 1016.2 |
| 20260831200204 | 100 | 212 | 5.0 | 12.0 | 0.00 | 0.00 | 0.00 | 37 | 1016.2 |
| 20260831193703 | 99 | 231 | 5.0 | 12.0 | 0.00 | 0.00 | 0.00 | 36 | 1016.5 |
| 20260831193203 | 99 | 187 | 3.0 | 12.0 | 0.00 | 0.00 | 0.00 | 37 | 1016.5 |
| 20260831190703 | 99 | 143 | 5.0 | 12.0 | 0.00 | 0.00 | 0.00 | 40 | 1016.7 |
| 20260831190203 | 99 | 149 | 6.0 | 13.0 | 0.00 | 0.00 | 0.00 | 39 | 1016.8 |
| 20260831183704 | 99 | 155 | 3.0 | 12.0 | 0.00 | 0.00 | 0.00 | 39 | 1017.0 |
| 20260831183203 | 99 | 144 | 4.0 | 13.0 | 0.00 | 0.00 | 0.00 | 38 | 1017.0 |
| 20260831180703 | 99 | 168 | 5.0 | 13.0 | 0.00 | 0.00 | 0.00 | 38 | 1017.2 |
| 20260831180203 | 99 | 162 | 5.0 | 14.0 | 0.00 | 0.00 | 0.00 | 41 | 1017.3 |
| 20260831173203 | 98 | 135 | 2.0 | 12.0 | 0.00 | 0.00 | 0.00 | 43 | 1017.6 |
| 20260831170703 | 97 | 169 | 3.0 | 7.0 | 0.00 | 0.00 | 0.00 | 45 | 1017.9 |
| 20260831163703 | 95 | 163 | 3.0 | 10.0 | 0.00 | 0.00 | 0.00 | 49 | 1018.0 |
| 20260831163203 | 95 | 162 | 5.0 | 12.0 | 0.00 | 0.00 | 0.00 | 49 | 1018.1 |
| 20260831160203 | 93 | 163 | 5.0 | 12.0 | 0.00 | 0.00 | 0.00 | 50 | 1018.1 |
| 20260831153703 | 91 | 165 | 4.0 | 10.0 | 0.00 | 0.00 | 0.00 | 56 | 1018.3 |
| 20260831153203 | 90 | 137 | 4.0 | 9.0 | 0.00 | 0.00 | 0.00 | 55 | 1018.3 |
| 20260831150703 | 88 | 172 | 1.0 | 3.0 | 0.00 | 0.00 | 0.00 | 58 | 1018.5 |
| 20260831150203 | 87 | 171 | 2.0 | 9.0 | 0.00 | 0.00 | 0.00 | 59 | 1018.5 |
| 20260831143703 | 84 | 185 | 1.0 | 5.0 | 0.00 | 0.00 | 0.00 | 61 | 1018.6 |
| 20260831143205 | 84 | 176 | 2.0 | 9.0 | 0.00 | 0.00 | 0.00 | 61 | 1018.6 |
| 20260831140703 | 81 | 165 | 4.0 | 8.0 | 0.00 | 0.00 | 0.00 | 64 | 1018.6 |
| 20260831140203 | 81 | 154 | 4.0 | 6.0 | 0.00 | 0.00 | 0.00 | 65 | 1018.6 |
| 20260831133703 | 79 | 161 | 2.0 | 3.0 | 0.00 | 0.00 | 0.00 | 65 | 1018.5 |
| 20260831133203 | 79 | 162 | 2.0 | 6.0 | 0.00 | 0.00 | 0.00 | 65 | 1018.5 |
| 20260831130703 | 77 | 156 | 2.0 | 5.0 | 0.00 | 0.00 | 0.00 | 66 | 1018.4 |
| 20260831130204 | 77 | 146 | 2.0 | 5.0 | 0.00 | 0.00 | 0.00 | 67 | 1018.4 |
| 20260831123703 | 74 | 145 | 1.0 | 3.0 | 0.00 | 0.00 | 0.00 | 70 | 1018.2 |
| 20260831123204 | 74 | 143 | 1.0 | 3.0 | 0.00 | 0.00 | 0.00 | 70 | 1018.0 |
| 20260831120703 | 74 | 144 | 1.0 | 3.0 | 0.00 | 0.00 | 0.00 | 70 | 1017.6 |
| 20260831113703 | 75 | 145 | 0.0 | 2.0 | 0.00 | 0.00 | 0.00 | 68 | 1017.2 |
| 20260831113203 | 75 | 145 | 0.0 | 3.0 | 0.00 | 0.00 | 0.00 | 68 | 1017.1 |
| 20260831110703 | 76 | 146 | 1.0 | 1.0 | 0.00 | 0.00 | 0.00 | 65 | 1016.8 |
| 20260831110204 | 76 | 146 | 1.0 | 3.0 | 0.00 | 0.00 | 0.00 | 65 | 1016.8 |
| 20260831103703 | 76 | 145 | 1.0 | 2.0 | 0.00 | 0.00 | 0.00 | 65 | 1016.6 |
| 20260831103203 | 77 | 146 | 2.0 | 5.0 | 0.00 | 0.00 | 0.00 | 65 | 1016.5 |
| 20260831100703 | 77 | 145 | 2.0 | 3.0 | 0.00 | 0.00 | 0.00 | 64 | 1016.3 |
| 20260831100203 | 77 | 145 | 1.0 | 6.0 | 0.00 | 0.00 | 0.00 | 64 | 1016.3 |
| 20260831093703 | 77 | 153 | 1.0 | 3.0 | 0.00 | 0.00 | 0.00 | 65 | 1016.4 |
| 20260831093203 | 77 | 153 | 0.0 | 3.0 | 0.00 | 0.00 | 0.00 | 65 | 1016.2 |
| 20260831090203 | 78 | 154 | 0.0 | 3.0 | 0.00 | 0.00 | 0.00 | 64 | 1015.9 |
| 20260831083703 | 78 | 156 | 0.0 | 0.0 | 0.00 | 0.00 | 0.00 | 64 | 1015.7 |
| 20260831083203 | 78 | 156 | 0.0 | 1.0 | 0.00 | 0.00 | 0.00 | 63 | 1015.7 |
| 20260831080704 | 79 | 156 | 0.0 | 1.0 | 0.00 | 0.00 | 0.00 | 61 | 1015.7 |
| 20260831080203 | 80 | 156 | 0.0 | 1.0 | 0.00 | 0.00 | 0.00 | 61 | 1015.8 |
| 20260831073704 | 81 | 156 | 0.0 | 3.0 | 0.00 | 0.00 | 0.00 | 58 | 1015.7 |
| 20260831073203 | 81 | 156 | 2.0 | 5.0 | 0.00 | 0.00 | 0.00 | 57 | 1015.7 |
| 20260831070703 | 82 | 151 | 2.0 | 5.0 | 0.00 | 0.00 | 0.00 | 57 | 1015.7 |
| 20260831070204 | 82 | 155 | 3.0 | 5.0 | 0.00 | 0.00 | 0.00 | 56 | 1015.7 |